Brandon Kyle — WDJ3076 — position and weather

sailwx.info

Track history (hours):
 
Tides and Currents Weather Stations Pressure Air Temp Water Temp Dewpoint Dewpoint Depression Visibility Wind Speed Wind Dir Waves Ship Positions

Brandon Kyle

Owner: D&S Marine Service LLC Brandon Kyle, Gray, LA. More information available from US FCC via Universal Licensing System and Coast Guard Vessel Documentation Center.

Last reported at 2017-Sep-25 14:00 UTC. Time now 2017-Sep-25 14:59 UTC.
Position N 29°45' W 095°10'.

Length 23 m; draft 3 m.

Type: . MMSI: 367764520.

Date/timePositionNaut miles runAvg speedWind from/ knotsBaromVisibWave heightAir tempDewpointWater temp
2017-Sep-25 14:00N 29°45' W 095°10'0 0.0
2017-Sep-25 13:18N 29°45' W 095°10'0 0.0
2017-Sep-25 12:15N 29°45' W 095°10'0 0.0
2017-Sep-25 10:51N 29°45' W 095°10'0 0.0
2017-Sep-25 10:24N 29°45' W 095°10'0 0.0
2017-Sep-25 09:57N 29°45' W 095°10'0 0.0
2017-Sep-25 09:30N 29°45' W 095°10'0 0.0
2017-Sep-25 09:00N 29°45' W 095°10'0 0.0
2017-Sep-25 08:27N 29°45' W 095°10'0 0.0
2017-Sep-25 05:42N 29°45' W 095°10'0 0.0
2017-Sep-25 05:30N 29°45' W 095°10'0 0.0
2017-Sep-25 04:57N 29°45' W 095°10'0 0.0
2017-Sep-25 04:30N 29°45' W 095°10'0 0.0
2017-Sep-25 04:00N 29°45' W 095°10'0 0.0
2017-Sep-25 03:22N 29°45' W 095°10'0 0.0
2017-Sep-24 23:38N 29°45' W 095°10'0 0.0
2017-Sep-24 22:38N 29°45' W 095°10'0 0.0
2017-Sep-24 21:20N 29°45' W 095°10'0 0.0
2017-Sep-24 19:20N 29°45' W 095°10'0 0.0
2017-Sep-24 17:14N 29°45' W 095°10'0 0.0
2017-Sep-24 12:50N 29°45' W 095°10'0 0.0
2017-Sep-24 12:14N 29°45' W 095°10'0 0.0
2017-Sep-24 01:38N 29°45' W 095°10'0 0.0
2017-Sep-24 00:14N 29°45' W 095°10'0 0.0
2017-Sep-23 21:44N 29°45' W 095°10'0 0.1
2017-Sep-23 21:24N 29°45' W 095°10'4 0.1
2017-Sep-22 01:56N 29°45' W 095°06'1 0.3
2017-Sep-21 23:46N 29°46' W 095°05'1 1.2
2017-Sep-21 23:19N 29°45' W 095°06'0 0.0
2017-Sep-21 22:54N 29°45' W 095°06'1 2.2
2017-Sep-21 22:23N 29°44' W 095°06'3 6.4
2017-Sep-21 21:57N 29°44' W 095°10'1 0.1
2017-Sep-21 11:46N 29°45' W 095°10'0 0.0
2017-Sep-21 05:22N 29°45' W 095°10'0 0.0
2017-Sep-21 04:46N 29°45' W 095°10'0 0.0
2017-Sep-21 04:19N 29°45' W 095°10'1 1.7
2017-Sep-21 03:57N 29°45' W 095°10'0 0.0
2017-Sep-21 03:30N 29°45' W 095°10'0 0.0
2017-Sep-21 02:57N 29°45' W 095°10'0 0.0
2017-Sep-21 02:30N 29°45' W 095°10'0 0.0
2017-Sep-21 02:00N 29°45' W 095°10'0 0.0
2017-Sep-21 01:30N 29°45' W 095°10'0 0.0
2017-Sep-21 01:00N 29°45' W 095°10'0 0.0
2017-Sep-21 00:30N 29°45' W 095°10'0 0.0
2017-Sep-21 00:00N 29°45' W 095°10'0 0.4
2017-Sep-20 23:30N 29°45' W 095°10'0 0.4
2017-Sep-20 23:00N 29°45' W 095°10'1 0.6
2017-Sep-20 22:02N 29°45' W 095°10'0 0.0
2017-Sep-20 21:46N 29°45' W 095°10'0 0.1
2017-Sep-20 21:22N 29°45' W 095°10'0 0.0
2017-Sep-20 21:00N 29°45' W 095°10'0 0.0
2017-Sep-20 18:08N 29°45' W 095°10'0 0.0
2017-Sep-20 17:56N 29°45' W 095°10'0 0.0
2017-Sep-20 17:27N 29°45' W 095°10'0 0.0
2017-Sep-19 21:42N 29°45' W 095°10'0 1.8
2017-Sep-19 21:29N 29°45' W 095°10'0 0.0
2017-Sep-19 19:44N 29°45' W 095°10'1 0.0
2017-Sep-18 23:42N 29°45' W 095°10'0 0.0
2017-Sep-18 22:03N 29°45' W 095°10'0 0.0
2017-Sep-18 21:42N 29°45' W 095°10'1 2.5
2017-Sep-18 21:26N 29°45' W 095°10'0 0.1
2017-Sep-18 21:00N 29°45' W 095°10'0 0.9
2017-Sep-18 20:30N 29°45' W 095°10'0 0.1
2017-Sep-18 17:22N 29°45' W 095°10'0 0.2
2017-Sep-18 16:51N 29°45' W 095°10'1 1.9
2017-Sep-18 16:30N 29°45' W 095°10'0 0.0
2017-Sep-18 16:00N 29°45' W 095°10'1 0.0
2017-Sep-17 13:37N 29°45' W 095°10'0 0.9
2017-Sep-17 13:11N 29°45' W 095°10'1 0.0
2017-Sep-16 13:33N 29°45' W 095°10'0 0.0
2017-Sep-16 13:30N 29°45' W 095°10'0 0.0
2017-Sep-16 10:39N 29°45' W 095°10'0 0.0
2017-Sep-16 10:27N 29°45' W 095°10'0 0.0
2017-Sep-16 09:51N 29°45' W 095°10'0 0.0
2017-Sep-16 09:21N 29°45' W 095°10'0 0.0
2017-Sep-16 08:57N 29°45' W 095°10'0 0.0
2017-Sep-16 08:24N 29°45' W 095°10'0 0.0
2017-Sep-16 06:33N 29°45' W 095°10'0 0.1
2017-Sep-16 06:30N 29°45' W 095°10'0 0.0
2017-Sep-16 06:00N 29°45' W 095°10'0 0.0
2017-Sep-16 05:27N 29°45' W 095°10'0 0.0
2017-Sep-16 04:51N 29°45' W 095°10'0 0.0
2017-Sep-16 03:54N 29°45' W 095°10'0 0.0
2017-Sep-16 03:27N 29°45' W 095°10'0 0.0
2017-Sep-16 02:51N 29°45' W 095°10'0 0.0
2017-Sep-16 02:27N 29°45' W 095°10'0 0.0
2017-Sep-16 01:57N 29°45' W 095°10'0 0.0
2017-Sep-15 23:23N 29°45' W 095°10'0 0.0
2017-Sep-15 22:58N 29°45' W 095°10'0 0.0
2017-Sep-15 22:21N 29°45' W 095°10'0 0.0
2017-Sep-15 21:56N 29°45' W 095°10'0 0.0
2017-Sep-15 21:24N 29°45' W 095°10'0 0.1
2017-Sep-15 19:24N 29°45' W 095°10'0 0.4
2017-Sep-15 19:00N 29°45' W 095°10'0 0.1
2017-Sep-15 16:33N 29°45' W 095°10'0 0.0
2017-Sep-15 16:21N 29°45' W 095°10'0 0.0
2017-Sep-15 15:29N 29°45' W 095°10'0 0.0
2017-Sep-15 14:44N 29°45' W 095°10'0 0.0
2017-Sep-15 14:23N 29°45' W 095°10'  
Track history (hours):
 
Tides and Currents Weather Stations Pressure Air Temp Water Temp Dewpoint Dewpoint Depression Visibility Wind Speed Wind Dir Waves Ship Positions

Brandon Kyle

Owner: D&S Marine Service LLC Brandon Kyle, Gray, LA. More information available from US FCC via Universal Licensing System and Coast Guard Vessel Documentation Center.

Last reported at 2017-Sep-25 14:00 UTC. Time now 2017-Sep-25 14:59 UTC.
Position N 29°45' W 095°10'.

Length 23 m; draft 3 m.

Type: . MMSI: 367764520.

Date/timePositionNaut miles runAvg speedWind from/ knotsBaromVisibWave heightAir tempDewpointWater temp
2017-Sep-25 14:00N 29°45' W 095°10'0 0.0
2017-Sep-25 13:18N 29°45' W 095°10'0 0.0
2017-Sep-25 12:15N 29°45' W 095°10'0 0.0
2017-Sep-25 10:51N 29°45' W 095°10'0 0.0
2017-Sep-25 10:24N 29°45' W 095°10'0 0.0
2017-Sep-25 09:57N 29°45' W 095°10'0 0.0
2017-Sep-25 09:30N 29°45' W 095°10'0 0.0
2017-Sep-25 09:00N 29°45' W 095°10'0 0.0
2017-Sep-25 08:27N 29°45' W 095°10'0 0.0
2017-Sep-25 05:42N 29°45' W 095°10'0 0.0
2017-Sep-25 05:30N 29°45' W 095°10'0 0.0
2017-Sep-25 04:57N 29°45' W 095°10'0 0.0
2017-Sep-25 04:30N 29°45' W 095°10'0 0.0
2017-Sep-25 04:00N 29°45' W 095°10'0 0.0
2017-Sep-25 03:22N 29°45' W 095°10'0 0.0
2017-Sep-24 23:38N 29°45' W 095°10'0 0.0
2017-Sep-24 22:38N 29°45' W 095°10'0 0.0
2017-Sep-24 21:20N 29°45' W 095°10'0 0.0
2017-Sep-24 19:20N 29°45' W 095°10'0 0.0
2017-Sep-24 17:14N 29°45' W 095°10'0 0.0
2017-Sep-24 12:50N 29°45' W 095°10'0 0.0
2017-Sep-24 12:14N 29°45' W 095°10'0 0.0
2017-Sep-24 01:38N 29°45' W 095°10'0 0.0
2017-Sep-24 00:14N 29°45' W 095°10'0 0.0
2017-Sep-23 21:44N 29°45' W 095°10'0 0.1
2017-Sep-23 21:24N 29°45' W 095°10'4 0.1
2017-Sep-22 01:56N 29°45' W 095°06'1 0.3
2017-Sep-21 23:46N 29°46' W 095°05'1 1.2
2017-Sep-21 23:19N 29°45' W 095°06'0 0.0
2017-Sep-21 22:54N 29°45' W 095°06'1 2.2
2017-Sep-21 22:23N 29°44' W 095°06'3 6.4
2017-Sep-21 21:57N 29°44' W 095°10'1 0.1
2017-Sep-21 11:46N 29°45' W 095°10'0 0.0
2017-Sep-21 05:22N 29°45' W 095°10'0 0.0
2017-Sep-21 04:46N 29°45' W 095°10'0 0.0
2017-Sep-21 04:19N 29°45' W 095°10'1 1.7
2017-Sep-21 03:57N 29°45' W 095°10'0 0.0
2017-Sep-21 03:30N 29°45' W 095°10'0 0.0
2017-Sep-21 02:57N 29°45' W 095°10'0 0.0
2017-Sep-21 02:30N 29°45' W 095°10'0 0.0
2017-Sep-21 02:00N 29°45' W 095°10'0 0.0
2017-Sep-21 01:30N 29°45' W 095°10'0 0.0
2017-Sep-21 01:00N 29°45' W 095°10'0 0.0
2017-Sep-21 00:30N 29°45' W 095°10'0 0.0
2017-Sep-21 00:00N 29°45' W 095°10'0 0.4
2017-Sep-20 23:30N 29°45' W 095°10'0 0.4
2017-Sep-20 23:00N 29°45' W 095°10'1 0.6
2017-Sep-20 22:02N 29°45' W 095°10'0 0.0
2017-Sep-20 21:46N 29°45' W 095°10'0 0.1
2017-Sep-20 21:22N 29°45' W 095°10'0 0.0
2017-Sep-20 21:00N 29°45' W 095°10'0 0.0
2017-Sep-20 18:08N 29°45' W 095°10'0 0.0
2017-Sep-20 17:56N 29°45' W 095°10'0 0.0
2017-Sep-20 17:27N 29°45' W 095°10'0 0.0
2017-Sep-19 21:42N 29°45' W 095°10'0 1.8
2017-Sep-19 21:29N 29°45' W 095°10'0 0.0
2017-Sep-19 19:44N 29°45' W 095°10'1 0.0
2017-Sep-18 23:42N 29°45' W 095°10'0 0.0
2017-Sep-18 22:03N 29°45' W 095°10'0 0.0
2017-Sep-18 21:42N 29°45' W 095°10'1 2.5
2017-Sep-18 21:26N 29°45' W 095°10'0 0.1
2017-Sep-18 21:00N 29°45' W 095°10'0 0.9
2017-Sep-18 20:30N 29°45' W 095°10'0 0.1
2017-Sep-18 17:22N 29°45' W 095°10'0 0.2
2017-Sep-18 16:51N 29°45' W 095°10'1 1.9
2017-Sep-18 16:30N 29°45' W 095°10'0 0.0
2017-Sep-18 16:00N 29°45' W 095°10'1 0.0
2017-Sep-17 13:37N 29°45' W 095°10'0 0.9
2017-Sep-17 13:11N 29°45' W 095°10'1 0.0
2017-Sep-16 13:33N 29°45' W 095°10'0 0.0
2017-Sep-16 13:30N 29°45' W 095°10'0 0.0
2017-Sep-16 10:39N 29°45' W 095°10'0 0.0
2017-Sep-16 10:27N 29°45' W 095°10'0 0.0
2017-Sep-16 09:51N 29°45' W 095°10'0 0.0
2017-Sep-16 09:21N 29°45' W 095°10'0 0.0
2017-Sep-16 08:57N 29°45' W 095°10'0 0.0
2017-Sep-16 08:24N 29°45' W 095°10'0 0.0
2017-Sep-16 06:33N 29°45' W 095°10'0 0.1
2017-Sep-16 06:30N 29°45' W 095°10'0 0.0
2017-Sep-16 06:00N 29°45' W 095°10'0 0.0
2017-Sep-16 05:27N 29°45' W 095°10'0 0.0
2017-Sep-16 04:51N 29°45' W 095°10'0 0.0
2017-Sep-16 03:54N 29°45' W 095°10'0 0.0
2017-Sep-16 03:27N 29°45' W 095°10'0 0.0
2017-Sep-16 02:51N 29°45' W 095°10'0 0.0
2017-Sep-16 02:27N 29°45' W 095°10'0 0.0
2017-Sep-16 01:57N 29°45' W 095°10'0 0.0
2017-Sep-15 23:23N 29°45' W 095°10'0 0.0
2017-Sep-15 22:58N 29°45' W 095°10'0 0.0
2017-Sep-15 22:21N 29°45' W 095°10'0 0.0
2017-Sep-15 21:56N 29°45' W 095°10'0 0.0
2017-Sep-15 21:24N 29°45' W 095°10'0 0.1
2017-Sep-15 19:24N 29°45' W 095°10'0 0.4
2017-Sep-15 19:00N 29°45' W 095°10'0 0.1
2017-Sep-15 16:33N 29°45' W 095°10'0 0.0
2017-Sep-15 16:21N 29°45' W 095°10'0 0.0
2017-Sep-15 15:29N 29°45' W 095°10'0 0.0
2017-Sep-15 14:44N 29°45' W 095°10'0 0.0
2017-Sep-15 14:23N 29°45' W 095°10'  

Dump ship's entire track history